Time;durP1;ratioP1;P1;durP2;ratioP2;P2;SDS_P1;SDS_P2;PMS_P1;PMS_P2;Temp;Humidity;BMP_temperature;BMP_pressure;BME280_temperature;BME280_humidity;BME280_pressure;Samples;Min_cycle;Max_cycle;Signal;HPM_P1;HPM_P2
2023/05/31 00:00:17;;;;;;;9.20;6.53;;;14.10;99.90;;;;;;5014519;28;20215;-76
2023/05/31 00:02:43;;;;;;;10.40;7.17;;;14.10;99.90;;;;;;5025230;28;20229;-74
2023/05/31 00:05:09;;;;;;;11.23;7.90;;;14.10;99.90;;;;;;5026409;28;20213;-74
2023/05/31 00:07:34;;;;;;;10.53;6.60;;;14.10;99.90;;;;;;5010115;28;20417;-74
2023/05/31 00:10:00;;;;;;;9.60;7.10;;;14.10;99.90;;;;;;5007387;28;20486;-73
2023/05/31 00:12:26;;;;;;;10.40;8.23;;;14.00;99.90;;;;;;4990903;28;20207;-76
2023/05/31 00:14:52;;;;;;;9.73;7.03;;;14.10;99.90;;;;;;4991184;28;20192;-74
2023/05/31 00:17:17;;;;;;;7.10;6.40;;;14.00;99.90;;;;;;4991616;28;20183;-73
2023/05/31 00:19:43;;;;;;;11.10;7.90;;;14.00;99.90;;;;;;5025684;28;20218;-74
2023/05/31 00:22:09;;;;;;;9.27;7.00;;;13.90;99.90;;;;;;5026564;28;20175;-74
2023/05/31 00:24:35;;;;;;;12.67;8.20;;;13.90;99.90;;;;;;5026419;28;20178;-75
2023/05/31 00:27:01;;;;;;;10.90;8.10;;;13.90;99.90;;;;;;5024278;28;20454;-74
2023/05/31 00:29:29;;;;;;;10.90;7.43;;;13.90;99.90;;;;;;5005381;28;20208;-73
2023/05/31 00:31:55;;;;;;;10.27;8.10;;;13.90;99.90;;;;;;5005250;28;20404;-73
2023/05/31 00:34:21;;;;;;;10.90;7.23;;;13.90;99.90;;;;;;5004620;28;20403;-73
2023/05/31 00:36:46;;;;;;;13.07;8.30;;;13.90;99.90;;;;;;4988564;28;20454;-74
2023/05/31 00:39:12;;;;;;;12.00;8.20;;;13.90;99.90;;;;;;5004607;28;20207;-74
2023/05/31 00:41:38;;;;;;;11.00;6.90;;;13.90;99.90;;;;;;4988545;28;20183;-73
2023/05/31 00:44:03;;;;;;;8.03;7.13;;;13.80;99.90;;;;;;5019589;28;20194;-73
2023/05/31 00:46:35;;;;;;;9.57;7.13;;;13.80;99.90;;;;;;5007492;28;20211;-74
2023/05/31 00:49:02;;;;;;;12.90;7.60;;;13.70;99.90;;;;;;5024508;28;20621;-74
2023/05/31 00:51:30;;;;;;;8.70;6.90;;;13.70;99.90;;;;;;5024650;28;20409;-74
2023/05/31 00:53:57;;;;;;;7.27;6.23;;;13.70;99.90;;;;;;5023562;28;20406;-74
2023/05/31 00:56:23;;;;;;;10.00;7.47;;;13.60;99.90;;;;;;5021233;28;20410;-74
2023/05/31 00:58:52;;;;;;;10.47;7.20;;;13.60;99.90;;;;;;5014338;28;20485;-73
2023/05/31 01:01:26;;;;;;;8.97;6.80;;;13.60;99.90;;;;;;5005312;28;20168;-75
2023/05/31 01:03:56;;;;;;;8.73;6.37;;;13.50;99.90;;;;;;5004503;28;20419;-74
2023/05/31 01:06:23;;;;;;;6.10;5.20;;;13.50;99.90;;;;;;4990367;28;20574;-74
2023/05/31 01:08:51;;;;;;;7.53;5.43;;;13.50;99.90;;;;;;5024812;28;20461;-74
2023/05/31 01:11:42;;;;;;;7.77;5.50;;;13.40;99.90;;;;;;5031368;28;20484;-75
2023/05/31 01:14:33;;;;;;;7.37;5.50;;;13.40;99.90;;;;;;5007542;28;20410;-74
2023/05/31 01:17:24;;;;;;;6.87;5.27;;;13.40;99.90;;;;;;4990783;28;20409;-74
2023/05/31 01:19:54;;;;;;;12.17;6.70;;;13.40;99.90;;;;;;4954346;28;20446;-77
2023/05/31 01:22:54;;;;;;;11.90;7.33;;;13.40;99.90;;;;;;4988156;28;20755;-74
2023/05/31 01:26:05;;;;;;;12.03;8.03;;;13.40;99.90;;;;;;5011510;28;20784;-74
2023/05/31 01:28:35;;;;;;;8.67;6.80;;;13.40;99.90;;;;;;5007584;28;20394;-74
2023/05/31 01:31:07;;;;;;;8.70;6.80;;;13.30;99.90;;;;;;4984636;28;20418;-74
2023/05/31 01:33:34;;;;;;;10.53;5.77;;;13.30;99.90;;;;;;5004343;28;20418;-75
2023/05/31 01:35:59;;;;;;;8.97;5.57;;;13.30;99.90;;;;;;5013636;28;20440;-73
2023/05/31 01:38:25;;;;;;;11.27;6.53;;;13.20;99.90;;;;;;5006774;28;20437;-73
2023/05/31 01:40:52;;;;;;;11.83;7.40;;;13.20;99.90;;;;;;5007449;28;20184;-75
2023/05/31 01:43:19;;;;;;;8.00;5.93;;;13.10;99.90;;;;;;5010477;28;20189;-74
2023/05/31 01:45:45;;;;;;;11.17;7.30;;;13.10;99.90;;;;;;5001861;28;20465;-74
2023/05/31 01:48:11;;;;;;;8.10;6.30;;;13.00;99.90;;;;;;4990590;28;20413;-73
2023/05/31 01:50:38;;;;;;;11.20;7.73;;;13.00;99.90;;;;;;5006313;28;20438;-74
2023/05/31 01:53:04;;;;;;;11.30;7.57;;;13.10;99.90;;;;;;4990131;28;20410;-74
2023/05/31 01:55:32;;;;;;;11.13;7.30;;;13.10;99.90;;;;;;4993682;28;20415;-73
2023/05/31 01:57:59;;;;;;;7.57;6.30;;;13.10;99.90;;;;;;4970173;28;20448;-75
2023/05/31 02:00:25;;;;;;;12.47;6.90;;;13.10;99.90;;;;;;5001079;28;20521;-75
2023/05/31 02:02:52;;;;;;;11.13;7.50;;;13.10;99.90;;;;;;4988784;28;20510;-74
2023/05/31 02:05:18;;;;;;;11.87;7.37;;;13.10;99.90;;;;;;5022723;28;20528;-74
2023/05/31 02:07:47;;;;;;;9.13;7.10;;;13.10;99.90;;;;;;5005173;28;20466;-74
2023/05/31 02:10:14;;;;;;;9.37;6.73;;;13.10;99.90;;;;;;5014803;28;20464;-72
2023/05/31 02:12:40;;;;;;;8.87;6.50;;;13.10;99.90;;;;;;5003084;28;20481;-76
2023/05/31 02:15:12;;;;;;;8.87;5.93;;;13.00;99.90;;;;;;5007293;28;20410;-74
2023/05/31 02:17:43;;;;;;;9.90;5.70;;;13.00;99.90;;;;;;5017345;28;20180;-74
2023/05/31 02:20:14;;;;;;;10.73;6.73;;;13.00;99.90;;;;;;5000718;28;20438;-73
2023/05/31 02:22:44;;;;;;;10.73;7.57;;;12.90;99.90;;;;;;5001810;28;20421;-75
2023/05/31 02:25:11;;;;;;;8.00;5.60;;;12.90;99.90;;;;;;4986839;28;20485;-75
2023/05/31 02:27:40;;;;;;;9.77;6.63;;;12.90;99.90;;;;;;5021233;28;20414;-74
2023/05/31 02:30:07;;;;;;;9.90;7.73;;;12.90;99.90;;;;;;5004529;28;20912;-78
2023/05/31 02:32:37;;;;;;;12.90;7.50;;;12.90;99.90;;;;;;5023028;28;20412;-75
2023/05/31 02:35:08;;;;;;;7.70;6.20;;;12.80;99.90;;;;;;5021366;28;20434;-74
2023/05/31 02:37:34;;;;;;;8.90;6.77;;;12.80;99.90;;;;;;5020972;28;20430;-74
2023/05/31 02:40:01;;;;;;;9.80;6.87;;;12.80;99.90;;;;;;5021648;28;20527;-74
2023/05/31 02:42:26;;;;;;;9.37;6.03;;;12.80;99.90;;;;;;5017869;28;20440;-74
2023/05/31 02:44:52;;;;;;;9.03;7.10;;;12.70;99.90;;;;;;5009803;28;20406;-74
2023/05/31 02:47:18;;;;;;;8.40;5.77;;;12.60;99.90;;;;;;4999188;28;20604;-75
2023/05/31 02:49:44;;;;;;;7.30;5.90;;;12.60;99.90;;;;;;5001783;28;20612;-74
2023/05/31 02:52:10;;;;;;;9.37;6.37;;;12.60;99.90;;;;;;5003176;28;20395;-76
2023/05/31 02:55:11;;;;;;;8.23;5.07;;;12.60;99.90;;;;;;4993424;28;20186;-75
2023/05/31 02:57:54;;;;;;;8.37;5.50;;;12.60;99.90;;;;;;4976526;28;20428;-73
2023/05/31 03:00:20;;;;;;;11.13;5.50;;;12.60;99.90;;;;;;4985664;28;20438;-74
2023/05/31 03:02:46;;;;;;;17.70;7.83;;;12.50;99.90;;;;;;4985131;28;20415;-74
2023/05/31 03:05:26;;;;;;;9.27;6.13;;;12.50;99.90;;;;;;4989456;28;20481;-74
2023/05/31 03:07:52;;;;;;;9.30;7.17;;;12.60;99.90;;;;;;5021193;28;20421;-75
2023/05/31 03:10:17;;;;;;;8.20;5.70;;;12.60;99.90;;;;;;5013264;28;20470;-74
2023/05/31 03:12:43;;;;;;;12.20;6.87;;;12.60;99.90;;;;;;4971585;28;20208;-74
2023/05/31 03:15:09;;;;;;;12.03;6.33;;;12.60;99.90;;;;;;4968183;28;20187;-73
2023/05/31 03:17:39;;;;;;;11.73;6.63;;;12.60;99.90;;;;;;5002285;28;20674;-74
2023/05/31 03:20:09;;;;;;;9.30;7.47;;;12.60;99.90;;;;;;5005736;28;20531;-75
2023/05/31 03:22:36;;;;;;;11.63;6.27;;;12.60;99.90;;;;;;4987972;28;20427;-75
2023/05/31 03:25:03;;;;;;;7.03;4.97;;;12.60;99.90;;;;;;4988988;28;20763;-75
2023/05/31 03:27:30;;;;;;;9.30;6.30;;;12.50;99.90;;;;;;4992047;28;20433;-76
2023/05/31 03:29:55;;;;;;;8.37;5.37;;;12.50;99.90;;;;;;4998830;28;20435;-75
2023/05/31 03:32:24;;;;;;;6.23;4.53;;;12.50;99.90;;;;;;4989392;28;20407;-76
2023/05/31 03:34:50;;;;;;;6.23;4.50;;;12.50;99.90;;;;;;4972671;28;20422;-74
2023/05/31 03:37:16;;;;;;;6.07;4.83;;;12.60;99.90;;;;;;4988801;28;20757;-74
2023/05/31 03:39:57;;;;;;;5.80;4.70;;;12.60;99.90;;;;;;5007619;28;20472;-75
2023/05/31 03:42:31;;;;;;;5.60;4.30;;;12.60;99.90;;;;;;4994717;28;20737;-75
2023/05/31 03:44:57;;;;;;;7.20;5.20;;;12.60;99.90;;;;;;5007526;28;20407;-74
2023/05/31 03:47:22;;;;;;;9.73;5.90;;;12.60;99.90;;;;;;5006801;28;20461;-75
2023/05/31 03:49:48;;;;;;;8.27;5.27;;;12.70;99.90;;;;;;4972825;28;20494;-74
2023/05/31 03:52:14;;;;;;;6.03;4.90;;;12.70;99.90;;;;;;4977871;28;20194;-74
2023/05/31 03:54:40;;;;;;;8.30;5.20;;;12.70;99.90;;;;;;5008568;28;20175;-75
2023/05/31 03:57:06;;;;;;;6.50;5.13;;;12.70;99.90;;;;;;5008768;28;20442;-75
2023/05/31 03:59:34;;;;;;;7.57;5.73;;;12.70;99.90;;;;;;4989630;28;20240;-75
2023/05/31 04:02:00;;;;;;;9.20;7.20;;;12.70;99.90;;;;;;4972534;28;20424;-75
2023/05/31 04:04:26;;;;;;;11.23;7.47;;;12.80;99.90;;;;;;5006786;28;20437;-74
2023/05/31 04:06:53;;;;;;;8.17;7.27;;;12.80;99.90;;;;;;4989558;28;20204;-74
2023/05/31 04:09:19;;;;;;;8.77;7.10;;;12.80;99.90;;;;;;4992209;28;20960;-74
2023/05/31 04:11:46;;;;;;;7.67;5.63;;;12.90;99.90;;;;;;5015982;28;20280;-75
2023/05/31 04:14:12;;;;;;;8.63;6.13;;;12.90;99.90;;;;;;5006651;28;20817;-74
2023/05/31 04:16:38;;;;;;;6.40;5.13;;;13.00;99.90;;;;;;5005297;28;20416;-75
2023/05/31 04:19:04;;;;;;;9.47;4.77;;;13.10;99.90;;;;;;4989714;28;20446;-74
2023/05/31 04:21:32;;;;;;;6.90;5.30;;;13.10;99.90;;;;;;5014203;28;20179;-75
2023/05/31 04:23:58;;;;;;;7.50;6.30;;;13.20;99.90;;;;;;4994971;28;20192;-75
2023/05/31 04:26:25;;;;;;;7.33;5.67;;;13.30;99.90;;;;;;5021381;28;20501;-74
2023/05/31 04:28:53;;;;;;;8.13;6.47;;;13.30;99.90;;;;;;5011405;28;20462;-75
2023/05/31 04:31:24;;;;;;;7.90;6.27;;;13.40;99.90;;;;;;5022400;28;20410;-74
2023/05/31 04:33:53;;;;;;;7.63;5.30;;;13.40;99.90;;;;;;5023851;28;20405;-74
2023/05/31 04:36:20;;;;;;;6.23;4.67;;;13.40;99.90;;;;;;5025217;28;20425;-75
2023/05/31 04:38:47;;;;;;;8.57;6.60;;;13.50;99.90;;;;;;5024034;28;20458;-73
2023/05/31 04:41:17;;;;;;;8.93;6.70;;;13.50;99.90;;;;;;5003542;28;20421;-74
2023/05/31 04:43:42;;;;;;;11.60;9.07;;;13.60;99.90;;;;;;5019600;28;20450;-75
2023/05/31 04:46:09;;;;;;;13.33;8.80;;;13.70;99.90;;;;;;5017165;28;20511;-75
2023/05/31 04:48:40;;;;;;;18.87;9.40;;;13.80;99.90;;;;;;4989259;28;20183;-76
2023/05/31 04:51:05;;;;;;;12.70;9.33;;;14.30;99.90;;;;;;5005183;28;20694;-74
2023/05/31 04:53:32;;;;;;;14.43;8.53;;;14.90;99.90;;;;;;5006787;28;20422;-76
2023/05/31 04:56:04;;;;;;;12.53;7.80;;;15.60;99.90;;;;;;5011987;28;20179;-75
2023/05/31 04:58:31;;;;;;;11.73;8.50;;;16.20;99.90;;;;;;5024752;28;20501;-75
2023/05/31 05:00:56;;;;;;;11.27;7.67;;;16.80;99.90;;;;;;5005736;28;20479;-76
2023/05/31 05:03:29;;;;;;;17.23;9.47;;;17.30;98.40;;;;;;5018468;28;20422;-75
2023/05/31 05:05:56;;;;;;;11.30;8.77;;;17.70;93.90;;;;;;5025183;28;20461;-76
2023/05/31 05:08:23;;;;;;;14.97;9.27;;;18.00;88.70;;;;;;5020380;28;20190;-75
2023/05/31 05:10:49;;;;;;;9.30;7.30;;;18.30;83.20;;;;;;5007094;28;21029;-75
2023/05/31 05:13:16;;;;;;;9.60;7.90;;;18.50;79.20;;;;;;5007020;28;20190;-76
2023/05/31 05:15:42;;;;;;;15.23;9.20;;;18.70;76.50;;;;;;5010936;28;20172;-75
2023/05/31 05:18:09;;;;;;;10.03;7.80;;;18.90;73.70;;;;;;5009727;28;20730;-77
2023/05/31 05:20:36;;;;;;;14.53;6.40;;;19.20;69.90;;;;;;5011378;28;20203;-78
2023/05/31 05:23:07;;;;;;;12.93;7.57;;;19.50;68.90;;;;;;5011734;28;20454;-76
2023/05/31 05:25:34;;;;;;;9.93;8.30;;;19.70;66.40;;;;;;5006878;28;20238;-76
2023/05/31 05:28:01;;;;;;;12.30;8.57;;;19.80;64.40;;;;;;5003216;28;20902;-76
2023/05/31 05:30:27;;;;;;;12.80;8.60;;;19.90;63.70;;;;;;4991922;28;20449;-77
2023/05/31 05:32:53;;;;;;;8.90;7.80;;;19.90;62.30;;;;;;4993308;28;20416;-78
2023/05/31 05:35:18;;;;;;;14.50;8.87;;;20.00;62.30;;;;;;4990841;28;20176;-77
2023/05/31 05:37:44;;;;;;;10.73;7.67;;;20.20;61.30;;;;;;4972955;28;20200;-78
2023/05/31 05:40:11;;;;;;;13.53;9.53;;;20.40;60.20;;;;;;4987928;28;20272;-75
2023/05/31 05:42:37;;;;;;;10.33;7.30;;;20.70;59.30;;;;;;4994462;28;20278;-78
2023/05/31 05:45:06;;;;;;;9.73;8.20;;;21.00;58.30;;;;;;4975465;28;20411;-77
2023/05/31 05:47:34;;;;;;;11.23;8.10;;;21.20;57.20;;;;;;4991806;28;20445;-75
2023/05/31 05:50:00;;;;;;;11.07;7.20;;;21.50;56.40;;;;;;4975118;28;20438;-77
2023/05/31 05:52:26;;;;;;;12.70;7.03;;;21.80;55.60;;;;;;5026560;28;20506;-77
2023/05/31 05:54:52;;;;;;;10.50;7.57;;;22.00;54.70;;;;;;5030928;28;20436;-78
2023/05/31 05:57:20;;;;;;;11.07;8.07;;;22.20;54.20;;;;;;5000143;28;20410;-76
2023/05/31 05:59:48;;;;;;;8.93;7.50;;;22.40;53.70;;;;;;5027915;28;20468;-77
2023/05/31 06:02:19;;;;;;;12.47;7.57;;;22.40;53.10;;;;;;5014543;28;20410;-77
2023/05/31 06:04:46;;;;;;;15.50;8.53;;;22.30;53.00;;;;;;5032691;28;20831;-79
2023/05/31 06:07:12;;;;;;;11.73;7.47;;;22.40;52.90;;;;;;5015048;28;20449;-78
2023/05/31 06:09:38;;;;;;;12.87;8.63;;;22.40;52.60;;;;;;4999856;28;20229;-79
2023/05/31 06:12:09;;;;;;;13.37;7.30;;;22.60;52.50;;;;;;5016222;28;20398;-75
2023/05/31 06:14:38;;;;;;;9.37;7.47;;;22.70;52.10;;;;;;5032907;28;20390;-78
2023/05/31 06:17:05;;;;;;;15.70;8.50;;;22.80;51.60;;;;;;5002103;28;20406;-76
2023/05/31 06:19:31;;;;;;;14.90;8.50;;;22.70;51.50;;;;;;5032444;28;20481;-79
2023/05/31 06:21:59;;;;;;;17.50;8.53;;;22.70;51.70;;;;;;5017838;28;20455;-77
2023/05/31 06:24:26;;;;;;;13.40;9.27;;;22.60;51.60;;;;;;5034048;28;20896;-76
2023/05/31 06:26:52;;;;;;;9.53;5.80;;;22.60;51.60;;;;;;5018888;28;20437;-79
2023/05/31 06:29:25;;;;;;;6.00;5.13;;;22.70;51.20;;;;;;5034153;28;20426;-77
2023/05/31 06:32:10;;;;;;;4.73;3.60;;;22.90;50.40;;;;;;5034322;28;20404;-79
2023/05/31 06:34:44;;;;;;;7.90;4.77;;;23.10;49.10;;;;;;5019268;28;20398;-78
2023/05/31 06:37:11;;;;;;;4.97;3.10;;;23.20;48.10;;;;;;5002803;28;20477;-76
2023/05/31 06:39:37;;;;;;;5.60;3.90;;;23.40;47.40;;;;;;5035644;28;20450;-79
2023/05/31 06:42:04;;;;;;;5.83;4.30;;;23.60;46.30;;;;;;5035196;28;20155;-79
2023/05/31 06:44:55;;;;;;;7.07;3.83;;;23.60;46.10;;;;;;5023068;28;20413;-77
2023/05/31 06:47:40;;;;;;;9.57;3.97;;;23.20;45.80;;;;;;5015590;28;20520;-79
2023/05/31 06:50:21;;;;;;;4.77;2.83;;;23.00;46.60;;;;;;5016544;28;20447;-79
2023/05/31 06:52:51;;;;;;;5.20;3.87;;;23.00;47.00;;;;;;4968333;28;20446;-79
2023/05/31 06:55:24;;;;;;;7.77;4.40;;;23.10;46.70;;;;;;5017456;28;20486;-78
2023/05/31 06:57:50;;;;;;;8.77;4.30;;;23.00;46.90;;;;;;5002883;28;20439;-77
2023/05/31 07:00:17;;;;;;;6.80;3.77;;;23.00;46.40;;;;;;5004168;28;20438;-78
2023/05/31 07:02:58;;;;;;;3.90;3.17;;;23.10;46.60;;;;;;5019865;28;20180;-79
2023/05/31 07:05:27;;;;;;;7.10;4.87;;;23.20;46.40;;;;;;4989835;28;20450;-78
2023/05/31 07:07:55;;;;;;;7.37;4.17;;;23.00;45.60;;;;;;4988156;28;20426;-79
2023/05/31 07:10:27;;;;;;;5.07;3.90;;;22.90;46.50;;;;;;5013521;28;20504;-79
2023/05/31 07:12:55;;;;;;;6.90;4.60;;;22.90;46.40;;;;;;5004051;28;20850;-77
2023/05/31 07:15:22;;;;;;;4.87;3.53;;;23.00;46.10;;;;;;4971408;28;20449;-78
2023/05/31 07:17:50;;;;;;;4.80;3.80;;;23.00;45.90;;;;;;5019671;28;20403;-79
2023/05/31 07:20:17;;;;;;;4.90;3.10;;;22.90;46.30;;;;;;4993084;28;20462;-78
2023/05/31 07:22:44;;;;;;;3.97;3.17;;;22.70;46.40;;;;;;5020721;28;20404;-77
2023/05/31 07:25:12;;;;;;;5.77;3.93;;;22.60;46.50;;;;;;5020158;28;20398;-80
2023/05/31 07:27:38;;;;;;;5.10;3.03;;;22.60;46.30;;;;;;5019243;28;20502;-77
2023/05/31 07:30:08;;;;;;;6.40;3.10;;;22.30;46.60;;;;;;5018860;28;20427;-77
2023/05/31 07:32:34;;;;;;;6.17;3.47;;;22.00;47.00;;;;;;5003211;28;20212;-78
2023/05/31 07:35:00;;;;;;;4.87;3.00;;;21.70;47.00;;;;;;5035744;28;20442;-78
2023/05/31 07:37:26;;;;;;;5.07;3.20;;;21.40;47.60;;;;;;5019787;28;20411;-79
2023/05/31 07:39:53;;;;;;;10.53;3.70;;;21.20;47.90;;;;;;5036357;28;20462;-80
2023/05/31 07:42:20;;;;;;;6.77;3.10;;;20.90;48.00;;;;;;5004037;28;20260;-76
2023/05/31 07:44:48;;;;;;;4.50;2.90;;;20.80;48.60;;;;;;5004135;28;20419;-78
2023/05/31 07:47:16;;;;;;;7.10;3.33;;;20.70;48.80;;;;;;5018731;28;20510;-80
2023/05/31 07:52:39;;;;;;;8.30;3.93;;;20.60;49.10;;;;;;5067320;23;20527;-80
2023/05/31 07:55:16;;;;;;;6.40;3.53;;;20.50;49.40;;;;;;5026862;28;20449;-77
2023/05/31 07:57:42;;;;;;;5.53;2.57;;;20.50;49.60;;;;;;5026375;28;20433;-80
2023/05/31 08:00:14;;;;;;;6.00;3.00;;;20.50;49.40;;;;;;5024328;28;20446;-79
2023/05/31 08:02:43;;;;;;;3.80;3.00;;;20.60;49.00;;;;;;4987643;28;20878;-79
2023/05/31 08:05:15;;;;;;;6.57;3.57;;;20.60;48.80;;;;;;5003405;28;20415;-78
2023/05/31 08:07:51;;;;;;;8.27;3.60;;;20.70;48.80;;;;;;5017090;28;20415;-79
2023/05/31 08:10:18;;;;;;;7.20;3.77;;;20.70;48.50;;;;;;4949606;28;21356;-79
2023/05/31 08:12:45;;;;;;;5.13;2.93;;;20.70;48.50;;;;;;5099808;23;20485;-77
2023/05/31 08:15:16;;;;;;;6.93;3.30;;;20.80;48.50;;;;;;4986420;28;20438;-79
2023/05/31 08:17:43;;;;;;;8.70;3.40;;;20.80;48.60;;;;;;5019084;28;20407;-79
2023/05/31 08:20:18;;;;;;;4.83;3.03;;;20.80;48.40;;;;;;5020395;28;20510;-79
2023/05/31 08:26:06;;;;;;;5.43;3.13;;;21.00;48.10;;;;;;2957440;23;20844;-79
2023/05/31 08:32:09;;;;;;;6.07;3.03;;;21.20;47.10;;;;;;5069438;23;20510;-80
2023/05/31 08:34:35;;;;;;;3.87;2.70;;;21.30;46.70;;;;;;4985954;28;20430;-80
2023/05/31 08:37:02;;;;;;;8.50;3.37;;;21.40;46.80;;;;;;5001925;28;20403;-78
2023/05/31 08:39:31;;;;;;;4.80;2.80;;;21.50;46.70;;;;;;4983259;28;20436;-78
2023/05/31 08:42:05;;;;;;;4.50;2.60;;;21.60;46.70;;;;;;4982832;28;20528;-79
2023/05/31 08:44:32;;;;;;;7.20;2.50;;;21.70;46.60;;;;;;4999774;28;20411;-79
2023/05/31 08:47:20;;;;;;;6.50;2.60;;;21.80;46.20;;;;;;4984379;28;20472;-80
2023/05/31 08:49:50;;;;;;;4.23;3.30;;;21.80;45.30;;;;;;4982770;28;20471;-79
2023/05/31 08:52:21;;;;;;;4.07;2.60;;;21.90;44.30;;;;;;4983073;28;20408;-80
2023/05/31 08:54:54;;;;;;;8.60;3.23;;;21.90;44.50;;;;;;4968102;28;20484;-81
2023/05/31 08:57:21;;;;;;;4.03;3.00;;;22.00;44.20;;;;;;4983510;28;20440;-81
2023/05/31 09:00:10;;;;;;;3.47;2.80;;;22.10;43.40;;;;;;4979773;28;20461;-78
2023/05/31 09:02:41;;;;;;;5.97;3.20;;;22.10;43.60;;;;;;4964960;28;20457;-79
2023/05/31 09:05:39;;;;;;;3.70;2.97;;;22.10;43.30;;;;;;4962604;29;20443;-80
2023/05/31 09:08:08;;;;;;;7.37;2.87;;;22.30;42.30;;;;;;4918509;29;20413;-79
2023/05/31 09:10:36;;;;;;;4.37;2.47;;;22.30;41.80;;;;;;4963421;29;20409;-80
2023/05/31 09:13:03;;;;;;;4.10;2.77;;;22.40;41.00;;;;;;4946899;29;20420;-80
2023/05/31 09:15:40;;;;;;;5.30;2.73;;;22.50;41.10;;;;;;4947680;28;20423;-80
2023/05/31 09:18:16;;;;;;;4.90;2.70;;;22.50;40.40;;;;;;4945812;29;20396;-79
2023/05/31 09:20:44;;;;;;;4.33;2.63;;;22.60;40.50;;;;;;4962937;29;20444;-81
2023/05/31 09:23:14;;;;;;;5.77;2.60;;;22.60;40.30;;;;;;4924421;29;20402;-79
2023/05/31 09:25:48;;;;;;;9.50;3.47;;;22.60;39.80;;;;;;4909068;29;20478;-80
2023/05/31 09:28:20;;;;;;;5.70;2.40;;;22.70;39.10;;;;;;4925128;29;20511;-79
2023/05/31 09:31:08;;;;;;;5.03;2.43;;;22.70;39.20;;;;;;4928328;29;20554;-79
2023/05/31 09:33:41;;;;;;;4.97;2.50;;;22.70;38.90;;;;;;4928314;29;20445;-81
2023/05/31 09:36:15;;;;;;;4.17;2.90;;;22.80;39.00;;;;;;4943972;28;20456;-81
2023/05/31 09:39:13;;;;;;;3.83;2.43;;;22.80;38.80;;;;;;4928355;28;20528;-82
2023/05/31 10:03:04;;;;;;;4.90;3.00;;;23.20;37.10;;;;;;4981619;23;20599;-80
2023/05/31 10:05:44;;;;;;;6.50;2.70;;;23.30;37.00;;;;;;4940646;29;20442;-79
2023/05/31 10:08:31;;;;;;;4.43;2.60;;;23.30;36.90;;;;;;4925179;29;20402;-80
2023/05/31 10:11:06;;;;;;;6.80;2.73;;;23.30;36.80;;;;;;4925852;29;20509;-78
2023/05/31 10:13:37;;;;;;;4.70;3.17;;;23.20;37.50;;;;;;4940565;29;20387;-80
2023/05/31 10:16:10;;;;;;;3.80;2.57;;;23.30;37.00;;;;;;4924993;29;20414;-80
2023/05/31 10:18:46;;;;;;;3.70;2.37;;;23.30;36.70;;;;;;4924446;29;20433;-78
2023/05/31 10:21:24;;;;;;;5.77;2.93;;;23.30;36.60;;;;;;4940339;29;20405;-78
2023/05/31 10:24:15;;;;;;;5.00;2.67;;;23.40;36.90;;;;;;4924563;29;20406;-79
2023/05/31 10:27:21;;;;;;;5.83;3.23;;;23.50;36.20;;;;;;4865232;29;20470;-80
2023/05/31 10:30:17;;;;;;;3.83;2.63;;;23.40;36.30;;;;;;4834413;29;20445;-80
2023/05/31 10:32:51;;;;;;;5.07;2.57;;;23.50;36.20;;;;;;4850130;29;20450;-80
2023/05/31 10:35:18;;;;;;;4.10;2.87;;;23.60;36.50;;;;;;4835624;29;20433;-78
2023/05/31 10:37:53;;;;;;;6.57;2.70;;;23.60;36.10;;;;;;4834727;29;20450;-80
2023/05/31 10:40:44;;;;;;;3.80;2.40;;;23.70;36.30;;;;;;4835140;29;20886;-79
2023/05/31 10:49:48;;;;;;;4.63;2.77;;;23.90;35.80;;;;;;5437057;23;20566;-81
2023/05/31 10:52:19;;;;;;;5.30;3.23;;;24.00;35.10;;;;;;4982634;28;20494;-80
2023/05/31 10:55:08;;;;;;;3.50;2.70;;;24.00;35.00;;;;;;4950794;28;20407;-79
2023/05/31 10:57:36;;;;;;;2.80;2.40;;;24.00;34.90;;;;;;4954675;28;20442;-80
2023/05/31 11:00:07;;;;;;;3.70;2.40;;;24.00;34.90;;;;;;4994815;28;20434;-80
2023/05/31 11:08:16;;;;;;;3.37;2.53;;;24.00;35.00;;;;;;5155280;23;20593;-78
2023/05/31 11:10:44;;;;;;;5.20;2.73;;;24.00;35.10;;;;;;4969031;23;20474;-79
2023/05/31 11:13:14;;;;;;;3.83;2.27;;;24.20;34.90;;;;;;4924428;29;20415;-80
2023/05/31 11:16:06;;;;;;;7.53;3.00;;;24.20;35.00;;;;;;4909358;29;20374;-81
2023/05/31 11:18:43;;;;;;;5.30;2.70;;;24.10;35.10;;;;;;4939065;29;20496;-81
2023/05/31 11:21:49;;;;;;;4.23;2.50;;;24.20;35.10;;;;;;4924163;29;20418;-78
2023/05/31 11:24:52;;;;;;;4.37;2.87;;;24.30;35.00;;;;;;4940170;29;20402;-80
2023/05/31 11:27:22;;;;;;;10.27;2.43;;;24.20;35.30;;;;;;4920439;29;20482;-80
2023/05/31 11:29:52;;;;;;;5.07;2.20;;;24.30;35.20;;;;;;4920666;29;20459;-79
2023/05/31 11:32:43;;;;;;;7.23;2.70;;;24.40;34.80;;;;;;4936215;29;20399;-80
2023/05/31 11:35:19;;;;;;;10.10;2.60;;;24.40;35.30;;;;;;4921885;29;20415;-81
2023/05/31 11:38:03;;;;;;;8.07;2.40;;;24.40;34.70;;;;;;4873763;29;20416;-81
2023/05/31 11:40:36;;;;;;;3.47;2.73;;;24.50;34.40;;;;;;5037949;23;20483;-81
2023/05/31 11:43:07;;;;;;;3.13;2.23;;;24.60;34.60;;;;;;4965811;28;20417;-79
2023/05/31 11:45:45;;;;;;;4.87;2.93;;;24.60;34.20;;;;;;4941850;29;20470;-79
2023/05/31 11:51:16;;;;;;;4.93;2.60;;;24.80;33.80;;;;;;1274432;26;20501;-81
2023/05/31 11:53:45;;;;;;;4.20;2.23;;;24.80;33.90;;;;;;4988756;28;20403;-79
2023/05/31 11:56:14;;;;;;;5.70;2.80;;;24.80;33.80;;;;;;4955481;28;20526;-80
2023/05/31 11:58:48;;;;;;;4.80;2.60;;;24.80;33.80;;;;;;4986909;28;20662;-80
2023/05/31 12:01:15;;;;;;;5.27;3.27;;;25.00;34.20;;;;;;4988335;28;20425;-80
2023/05/31 12:03:41;;;;;;;2.23;1.90;;;25.10;34.30;;;;;;5003345;28;20442;-80
2023/05/31 12:06:08;;;;;;;6.03;2.40;;;25.20;33.60;;;;;;5020062;28;20478;-80
2023/05/31 12:09:07;;;;;;;3.37;2.33;;;25.20;33.10;;;;;;5019649;28;20418;-81
2023/05/31 12:11:35;;;;;;;3.77;2.73;;;25.10;33.30;;;;;;5020191;28;20406;-79
2023/05/31 12:14:26;;;;;;;7.43;2.30;;;25.10;33.60;;;;;;4988971;28;20427;-78
2023/05/31 12:17:06;;;;;;;2.90;2.17;;;25.00;33.50;;;;;;4993612;28;20439;-80
2023/05/31 12:19:36;;;;;;;5.67;3.13;;;25.00;33.70;;;;;;5001333;28;20482;-79
2023/05/31 12:22:42;;;;;;;5.03;2.40;;;25.10;33.60;;;;;;5003943;28;20439;-83
2023/05/31 12:31:37;;;;;;;5.13;2.30;;;25.10;33.20;;;;;;4997731;28;20518;-79
2023/05/31 12:34:37;;;;;;;4.33;2.60;;;25.00;34.30;;;;;;4960919;28;20408;-81
2023/05/31 12:37:10;;;;;;;11.03;3.60;;;25.00;34.40;;;;;;4952450;28;20378;-81
2023/05/31 12:39:41;;;;;;;4.27;2.10;;;25.10;34.50;;;;;;4967605;28;20495;-78
2023/05/31 12:42:15;;;;;;;6.10;2.50;;;25.10;34.50;;;;;;4983313;28;20400;-79
2023/05/31 12:45:04;;;;;;;4.30;3.10;;;25.20;35.00;;;;;;4934986;28;20472;-81
2023/05/31 12:47:43;;;;;;;2.30;2.10;;;25.10;35.90;;;;;;5181347;23;20470;-80
2023/05/31 12:53:01;;;;;;;6.33;3.47;;;25.20;34.60;;;;;;1257913;26;21606;-82
2023/05/31 12:55:29;;;;;;;4.30;2.60;;;25.30;34.10;;;;;;5003940;28;20427;-80
2023/05/31 12:57:56;;;;;;;5.60;3.10;;;25.30;34.40;;;;;;5002549;28;20411;-79
2023/05/31 13:00:44;;;;;;;5.30;2.67;;;25.40;34.50;;;;;;5000576;28;20451;-83
2023/05/31 13:03:17;;;;;;;2.93;2.50;;;25.50;34.30;;;;;;5003020;28;20442;-81
2023/05/31 13:05:44;;;;;;;4.27;2.80;;;25.50;34.50;;;;;;4999993;28;20447;-79
2023/05/31 13:08:10;;;;;;;3.60;2.60;;;25.50;34.80;;;;;;4984045;28;20423;-79
2023/05/31 13:10:38;;;;;;;6.20;3.07;;;25.50;35.20;;;;;;5017959;28;20450;-80
2023/05/31 13:13:05;;;;;;;3.70;2.53;;;25.60;34.80;;;;;;4976278;28;20488;-79
2023/05/31 13:15:30;;;;;;;4.40;3.10;;;25.60;35.00;;;;;;5004168;28;20419;-76
2023/05/31 13:17:56;;;;;;;4.23;2.40;;;25.70;35.70;;;;;;4993366;28;20441;-77
2023/05/31 13:20:23;;;;;;;7.40;3.60;;;25.70;35.70;;;;;;4993618;28;20215;-76
2023/05/31 13:22:49;;;;;;;4.10;2.87;;;25.70;36.20;;;;;;5008156;28;20195;-77
2023/05/31 13:25:14;;;;;;;9.00;3.50;;;25.70;37.30;;;;;;4996013;28;20430;-80
2023/05/31 13:27:41;;;;;;;7.60;3.77;;;25.70;38.10;;;;;;5010659;28;20187;-77
2023/05/31 13:30:09;;;;;;;5.87;4.13;;;25.70;38.60;;;;;;4994026;28;20225;-78
2023/05/31 13:32:35;;;;;;;6.37;3.37;;;25.60;38.70;;;;;;4971310;28;20511;-76
2023/05/31 13:35:00;;;;;;;8.53;3.97;;;25.50;39.20;;;;;;4956102;28;20435;-75
2023/05/31 13:37:26;;;;;;;8.10;3.37;;;25.60;39.30;;;;;;4956036;28;20428;-79
2023/05/31 13:39:54;;;;;;;4.10;3.00;;;25.50;39.30;;;;;;4957830;28;20219;-78
2023/05/31 13:42:23;;;;;;;7.00;3.60;;;25.60;39.00;;;;;;4955515;28;20448;-74
2023/05/31 13:44:48;;;;;;;10.33;3.40;;;25.50;39.10;;;;;;4953896;28;20525;-76
2023/05/31 13:47:17;;;;;;;7.03;3.03;;;25.60;39.80;;;;;;4954886;28;20263;-77
2023/05/31 13:49:48;;;;;;;6.10;3.60;;;25.70;38.90;;;;;;4976111;28;20219;-79
2023/05/31 13:52:15;;;;;;;4.77;2.80;;;25.80;38.70;;;;;;4944302;28;20423;-75
2023/05/31 13:54:41;;;;;;;5.70;3.23;;;25.70;38.60;;;;;;4973367;28;20464;-76
2023/05/31 13:57:07;;;;;;;6.40;3.30;;;25.70;38.50;;;;;;4958896;28;20994;-76